地図

経路データ

SID SEASON NUMBER BASIN SUBBASIN NAME ISO_TIME NATURE LAT LON WMO_WIND WMO_PRES WMO_AGENCY TRACK_TYPE DIST2LAND LANDFALL IFLAG USA_AGENCY USA_ATCF_ID USA_LAT USA_LON USA_RECORD USA_STATUS USA_WIND USA_PRES USA_SSHS USA_R34_NE USA_R34_SE USA_R34_SW USA_R34_NW USA_R50_NE USA_R50_SE USA_R50_SW USA_R50_NW USA_R64_NE USA_R64_SE USA_R64_SW USA_R64_NW USA_POCI USA_ROCI USA_RMW USA_EYE TOKYO_LAT TOKYO_LON TOKYO_GRADE TOKYO_WIND TOKYO_PRES TOKYO_R50_DIR TOKYO_R50_LONG TOKYO_R50_SHORT TOKYO_R30_DIR TOKYO_R30_LONG TOKYO_R30_SHORT TOKYO_LAND CMA_LAT CMA_LON CMA_CAT CMA_WIND CMA_PRES HKO_LAT HKO_LON HKO_CAT HKO_WIND HKO_PRES NEWDELHI_LAT NEWDELHI_LON NEWDELHI_GRADE NEWDELHI_WIND NEWDELHI_PRES NEWDELHI_CI NEWDELHI_DP NEWDELHI_POCI REUNION_LAT REUNION_LON REUNION_TYPE REUNION_WIND REUNION_PRES REUNION_TNUM REUNION_CI REUNION_RMW REUNION_R34_NE REUNION_R34_SE REUNION_R34_SW REUNION_R34_NW REUNION_R50_NE REUNION_R50_SE REUNION_R50_SW REUNION_R50_NW REUNION_R64_NE REUNION_R64_SE REUNION_R64_SW REUNION_R64_NW BOM_LAT BOM_LON BOM_TYPE BOM_WIND BOM_PRES BOM_TNUM BOM_CI BOM_RMW BOM_R34_NE BOM_R34_SE BOM_R34_SW BOM_R34_NW BOM_R50_NE BOM_R50_SE BOM_R50_SW BOM_R50_NW BOM_R64_NE BOM_R64_SE BOM_R64_SW BOM_R64_NW BOM_ROCI BOM_POCI BOM_EYE BOM_POS_METHOD BOM_PRES_METHOD NADI_LAT NADI_LON NADI_CAT NADI_WIND NADI_PRES WELLINGTON_LAT WELLINGTON_LON WELLINGTON_WIND WELLINGTON_PRES DS824_LAT DS824_LON DS824_STAGE DS824_WIND DS824_PRES TD9636_LAT TD9636_LON TD9636_STAGE TD9636_WIND TD9636_PRES TD9635_LAT TD9635_LON TD9635_WIND TD9635_PRES TD9635_ROCI NEUMANN_LAT NEUMANN_LON NEUMANN_CLASS NEUMANN_WIND NEUMANN_PRES MLC_LAT MLC_LON MLC_CLASS MLC_WIND MLC_PRES USA_GUST BOM_GUST BOM_GUST_PER REUNION_GUST REUNION_GUST_PER USA_SEAHGT USA_SEARAD_NE USA_SEARAD_SE USA_SEARAD_SW USA_SEARAD_NW STORM_SPEED STORM_DIR
1944232N20142 1944 51 WP MM NOT_NAMED 1944-08-19 09:00:00 NR 20.2000 142.400 main 1611 1553 __________O___ -1 20.2000 142.400 4 15 292
1944232N20142 1944 51 WP MM NOT_NAMED 1944-08-19 12:00:00 NR 20.4856 141.644 main 1550 1507 __________P___ -1 20.4283 141.666 4 12 300
1944232N20142 1944 51 WP MM NOT_NAMED 1944-08-19 15:00:00 NR 20.8015 141.293 main 1507 1469 __________P___ -1 20.6837 141.004 4 9 322
1944232N20142 1944 51 WP MM NOT_NAMED 1944-08-19 18:00:00 NR 21.1590 141.073 main 1458 1416 __________P___ -1 20.9970 140.491 4 8 347
1944232N20142 1944 51 WP MM NOT_NAMED 1944-08-19 21:00:00 NR 21.6047 141.088 main 1416 1364 __________O___ -1 21.4000 140.200 4 10 3
1944232N20142 1944 51 WP MM NOT_NAMED 1944-08-20 00:00:00 NR 22.1057 141.138 main 1364 1316 __________P___ -1 21.9113 140.176 4 11 9
1944232N20142 1944 51 WP MM NOT_NAMED 1944-08-20 03:00:00 NR 22.6781 141.277 main 1310 1252 __________P___ -1 22.4968 140.332 4 12 13
1944232N20142 1944 51 WP MM NOT_NAMED 1944-08-20 06:00:00 NR 23.2919 141.436 main 1252 1196 __________P___ -1 23.1088 140.548 4 13 11
1944232N20142 1944 51 WP MM NOT_NAMED 1944-08-20 09:00:00 NR 23.9141 141.545 main 1196 1136 __________O___ -1 23.7000 140.700 4 13 4
1944232N20142 1944 51 WP MM NOT_NAMED 1944-08-20 12:00:00 NR 24.5647 141.519 main 1127 1063 __________P___ -1 24.3294 140.638 4 13 355
1944232N20142 1944 51 WP MM NOT_NAMED 1944-08-20 15:00:00 NR 25.1936 141.416 main 1063 999 __________P___ -1 24.9121 140.489 4 12 342
1944232N20142 1944 51 WP MM NOT_NAMED 1944-08-20 18:00:00 NR 25.7008 141.109 main 999 951 __________P___ -1 25.3638 140.270 4 10 321
1944232N20142 1944 51 WP MM NOT_NAMED 1944-08-20 21:00:00 NR 26.0084 140.691 main 951 932 __________O___ -1 25.6000 140.000 4 9 283
1944232N20142 1944 51 WP MM NOT_NAMED 1944-08-21 00:00:00 NR 25.8986 140.169 main 938 933 __________P___ -1 25.4982 139.736 4 14 234
1944232N20142 1944 51 WP MM NOT_NAMED 1944-08-21 03:00:00 NR 25.1871 139.430 main 979 979 __________P___ -1 25.1871 139.430 4 15 221
1944232N20142 1944 51 WP MM NOT_NAMED 1944-08-21 06:00:00 NR 24.7824 139.083 main 1011 1011 __________P___ -1 24.7824 139.083 4 10 220
1944232N20142 1944 51 WP MM NOT_NAMED 1944-08-21 09:00:00 NR 24.4000 138.700 main 1043 1043 __________O___ -1 24.4000 138.700 4 10 227
1944232N20142 1944 51 WP MM NOT_NAMED 1944-08-21 12:00:00 NR 24.1012 138.292 main 1059 1053 __________P___ -1 24.1012 138.292 4 9 235
1944232N20142 1944 51 WP MM NOT_NAMED 1944-08-21 15:00:00 NR 23.8599 137.849 main 1047 1039 __________P___ -1 23.8599 137.849 4 9 246
1944232N20142 1944 51 WP MM NOT_NAMED 1944-08-21 18:00:00 NR 23.7386 137.382 main 1042 1006 __________P___ -1 23.7386 137.382 4 9 266
1944232N20142 1944 51 WP MM NOT_NAMED 1944-08-21 21:00:00 NR 23.8000 136.900 main 1006 951 __________O___ -1 23.8000 136.900 4 10 292
1944232N20142 1944 51 WP MM NOT_NAMED 1944-08-22 00:00:00 NR 24.1010 136.408 main 951 877 __________P___ -1 24.1010 136.408 4 12 311
1944232N20142 1944 51 WP MM NOT_NAMED 1944-08-22 03:00:00 NR 24.5826 135.903 main 877 803 __________P___ -1 24.5826 135.903 4 14 319
1944232N20142 1944 51 WP MM NOT_NAMED 1944-08-22 06:00:00 NR 25.1729 135.395 main 794 710 __________P___ -1 25.1729 135.395 4 15 323
1944232N20142 1944 51 WP MM NOT_NAMED 1944-08-22 09:00:00 NR 25.8000 134.900 main 710 627 __________O___ -1 25.8000 134.900 4 16 323
1944232N20142 1944 51 WP MM NOT_NAMED 1944-08-22 12:00:00 NR 26.4514 134.337 main 612 529 __________P___ -1 26.4514 134.337 4 16 323
1944232N20142 1944 51 WP MM NOT_NAMED 1944-08-22 15:00:00 NR 27.1083 133.802 main 529 451 __________P___ -1 27.1083 133.802 4 15 325
1944232N20142 1944 51 WP MM NOT_NAMED 1944-08-22 18:00:00 NR 27.6858 133.365 main 451 398 __________P___ -1 27.6858 133.365 4 12 328
1944232N20142 1944 51 WP MM NOT_NAMED 1944-08-22 21:00:00 NR 28.1000 133.100 main 398 380 __________O___ -1 28.1000 133.100 4 6 339
1944232N20142 1944 51 WP MM NOT_NAMED 1944-08-23 00:00:00 NR 28.2591 133.113 main 380 380 __________P___ -1 28.2591 133.113 4 2 49
1944232N20142 1944 51 WP MM NOT_NAMED 1944-08-23 03:00:00 NR 28.2522 133.298 main 391 391 __________P___ -1 28.2522 133.298 4 4 106
1944232N20142 1944 51 WP MM NOT_NAMED 1944-08-23 06:00:00 NR 28.1441 133.558 main 424 424 __________P___ -1 28.1441 133.558 4 5 120
1944232N20142 1944 51 WP MM NOT_NAMED 1944-08-23 09:00:00 NR 28.0000 133.800 main 444 444 __________O___ -1 28.0000 133.800 4 4 120
1944232N20142 1944 51 WP MM NOT_NAMED 1944-08-23 12:00:00 NR 27.9579 133.923 main 449 449 __________P___ -1 27.9579 133.923 4 2 121
1944232N20142 1944 51 WP MM NOT_NAMED 1944-08-23 15:00:00 NR 27.8897 134.006 main 464 464 __________P___ -1 27.8897 134.006 4 2 152
1944232N20142 1944 51 WP MM NOT_NAMED 1944-08-23 18:00:00 NR 27.7766 134.036 main 473 473 __________P___ -1 27.7766 134.036 4 3 185
1944232N20142 1944 51 WP MM NOT_NAMED 1944-08-23 21:00:00 NR 27.6000 134.000 main 492 492 __________O___ -1 27.6000 134.000 4 5 201
1944232N20142 1944 51 WP MM NOT_NAMED 1944-08-24 00:00:00 NR 27.3238 133.839 main 510 510 __________P___ -1 27.3238 133.839 4 7 209
1944232N20142 1944 51 WP MM NOT_NAMED 1944-08-24 03:00:00 NR 26.9880 133.625 main 527 527 __________P___ -1 26.9880 133.625 4 8 208
1944232N20142 1944 51 WP MM NOT_NAMED 1944-08-24 06:00:00 NR 26.6331 133.424 main 556 556 __________P___ -1 26.6331 133.424 4 8 203
1944232N20142 1944 51 WP MM NOT_NAMED 1944-08-24 09:00:00 NR 26.3000 133.300 main 582 582 __________O___ -1 26.3000 133.300 4 7 185
1944232N20142 1944 51 WP MM NOT_NAMED 1944-08-24 12:00:00 NR 25.8919 133.353 main 627 627 __________P___ -1 25.8919 133.353 4 8 168
1944232N20142 1944 51 WP MM NOT_NAMED 1944-08-24 15:00:00 NR 25.5352 133.485 main 672 672 __________P___ -1 25.5352 133.485 4 6 154
1944232N20142 1944 51 WP MM NOT_NAMED 1944-08-24 18:00:00 NR 25.3358 133.649 main 696 694 __________P___ -1 25.3358 133.649 4 3 115
1944232N20142 1944 51 WP MM NOT_NAMED 1944-08-24 21:00:00 NR 25.4000 133.800 main 694 644 __________O___ -1 25.4000 133.800 4 6 14
1944232N20142 1944 51 WP MM NOT_NAMED 1944-08-25 00:00:00 NR 25.9123 133.816 main 644 576 __________P___ -1 25.9123 133.816 4 13 0
1944232N20142 1944 51 WP MM NOT_NAMED 1944-08-25 03:00:00 NR 26.6768 133.820 main 566 497 __________P___ -1 26.6768 133.820 4 16 1
1944232N20142 1944 51 WP MM NOT_NAMED 1944-08-25 06:00:00 NR 27.5279 133.863 main 497 427 __________P___ -1 27.5279 133.863 4 16 6
1944232N20142 1944 51 WP MM NOT_NAMED 1944-08-25 09:00:00 NR 28.3000 134.000 main 427 403 __________O___ -1 28.3000 134.000 4 13 16
1944232N20142 1944 51 WP MM NOT_NAMED 1944-08-25 12:00:00 NR 28.7656 134.267 main 402 392 __________P___ -1 28.7656 134.267 4 10 34
1944232N20142 1944 51 WP MM NOT_NAMED 1944-08-25 15:00:00 NR 29.1269 134.636 main 400 400 __________P___ -1 29.1269 134.636 4 10 47
1944232N20142 1944 51 WP MM NOT_NAMED 1944-08-25 18:00:00 NR 29.4247 135.087 main 418 409 __________P___ -1 29.4247 135.087 4 10 56
1944232N20142 1944 51 WP MM NOT_NAMED 1944-08-25 21:00:00 NR 29.7000 135.600 main 412 379 __________O___ -1 29.7000 135.600 4 11 57
1944232N20142 1944 51 WP MM NOT_NAMED 1944-08-26 00:00:00 NR 30.0185 136.135 main 380 353 __________P___ -1 30.0185 136.135 4 12 57
1944232N20142 1944 51 WP MM NOT_NAMED 1944-08-26 03:00:00 NR 30.3224 136.726 main 356 338 __________P___ -1 30.3224 136.726 4 12 60
1944232N20142 1944 51 WP MM NOT_NAMED 1944-08-26 06:00:00 NR 30.6151 137.354 main 346 340 __________P___ -1 30.6151 137.354 4 12 62
1944232N20142 1944 51 WP MM NOT_NAMED 1944-08-26 09:00:00 NR 30.9000 138.000 main 347 343 __________O___ -1 30.9000 138.000 4 14 59
1944232N20142 1944 51 WP MM NOT_NAMED 1944-08-26 12:00:00 NR 31.3259 138.717 main 358 326 __________P___ -1 31.3259 138.717 4 15 56
1944232N20142 1944 51 WP MM NOT_NAMED 1944-08-26 15:00:00 NR 31.7224 139.436 main 328 310 __________P___ -1 31.7224 139.436 4 13 61
1944232N20142 1944 51 WP MM NOT_NAMED 1944-08-26 18:00:00 NR 31.9823 140.089 main 313 313 __________P___ -1 31.9823 140.089 4 10 74
1944232N20142 1944 51 WP MM NOT_NAMED 1944-08-26 21:00:00 NR 32.0000 140.600 main 329 329 __________O___ -1 32.0000 140.600 4 7 126
1944232N20142 1944 51 WP MM NOT_NAMED 1944-08-27 00:00:00 NR 31.5469 140.796 main 388 388 __________P___ -1 31.5469 140.796 4 12 169
1944232N20142 1944 51 WP MM NOT_NAMED 1944-08-27 03:00:00 NR 30.8708 140.859 main 455 455 __________P___ -1 30.8708 140.859 4 14 176
1944232N20142 1944 51 WP MM NOT_NAMED 1944-08-27 06:00:00 NR 30.1594 140.917 main 528 528 __________P___ -1 30.1594 140.917 4 13 171
1944232N20142 1944 51 WP MM NOT_NAMED 1944-08-27 09:00:00 NR 29.6000 141.100 main 598 598 __________O___ -1 29.6000 141.100 4 10 144
1944232N20142 1944 51 WP MM NOT_NAMED 1944-08-27 12:00:00 NR 29.3575 141.588 main 633 633 __________P___ -1 29.3575 141.588 4 10 107
1944232N20142 1944 51 WP MM NOT_NAMED 1944-08-27 15:00:00 NR 29.2997 142.211 main 660 660 __________P___ -1 29.2997 142.211 4 11 87
1944232N20142 1944 51 WP MM NOT_NAMED 1944-08-27 18:00:00 NR 29.4168 142.904 main 675 668 __________P___ -1 29.4168 142.904 4 13 72
1944232N20142 1944 51 WP MM NOT_NAMED 1944-08-27 21:00:00 NR 29.7000 143.600 main 675 664 __________O___ -1 29.7000 143.600 4 13 58
1944232N20142 1944 51 WP MM NOT_NAMED 1944-08-28 00:00:00 NR 30.1196 144.189 main 669 641 __________P___ -1 30.1196 144.189 4 14 46
1944232N20142 1944 51 WP MM NOT_NAMED 1944-08-28 03:00:00 NR 30.6906 144.776 main 647 629 __________P___ -1 30.6906 144.776 4 16 40
1944232N20142 1944 51 WP MM NOT_NAMED 1944-08-28 06:00:00 NR 31.3414 145.375 main 635 625 __________P___ -1 31.3414 145.375 4 17 39
1944232N20142 1944 51 WP MM NOT_NAMED 1944-08-28 09:00:00 NR 32.0000 146.000 main 625 624 __________O___ -1 32.0000 146.000 4 17 41
1944232N20142 1944 51 WP MM NOT_NAMED 1944-08-28 12:00:00 NR 32.6090 146.661 main 634 628 __________P___ -1 32.6090 146.661 4 16 44
1944232N20142 1944 51 WP MM NOT_NAMED 1944-08-28 15:00:00 NR 33.1688 147.353 main 656 656 __________P___ -1 33.1688 147.353 4 16 47
1944232N20142 1944 51 WP MM NOT_NAMED 1944-08-28 18:00:00 NR 33.6941 148.068 main 693 689 __________P___ -1 33.6941 148.068 4 16 49
1944232N20142 1944 51 WP MM NOT_NAMED 1944-08-28 21:00:00 NR 34.2000 148.800 main 737 __________O___ -1 34.2000 148.800 4 16 50

デジタル台風データ・検索

IBTrACS Databaseについて

本データベースは、米国NOAAが公開する1842年以降の世界の熱帯低気圧のベストトラックデータアーカイブInternational Best Track Archive for Climate Stewardship (IBTrACS)を、ウェブで閲覧しやすい形式に変換したものです。

最終更新日:2021-12-01